Terminal Aerodrome Forecast
Issued by NWS Tuscon, AZ

Home | Current Version | Previous Version | Text Only | Print | Product List | Glossary On
Versions: 1 2 3 4 5 6 7 8 9 10 11 12
000
FTUS45 KTWC 242330
TAFDUG
TAF
KDUG 242330Z 2500/2524 23018G28KT P6SM FEW150
     FM250200 25011G17KT P6SM SKC
     FM250600 19009KT P6SM SKC
     FM251400 20014G22KT P6SM SKC
     FM251900 22025G35KT P6SM SKC=

USA.gov is the U.S. government's official web portal to all federal, state and local government web resources and services.